createdAt,value
2023-04-15T00:01:45.543Z,54.92
2023-04-15T00:04:13.451Z,54.95
2023-04-15T00:06:41.822Z,55.90
2023-04-15T00:09:11.457Z,55.57
2023-04-15T00:11:39.121Z,55.80
2023-04-15T00:14:07.487Z,56.37
2023-04-15T00:16:35.261Z,56.99
2023-04-15T00:19:03.117Z,56.68
2023-04-15T00:21:30.995Z,56.83
2023-04-15T00:23:58.717Z,56.67
2023-04-15T00:26:27.960Z,56.93
2023-04-15T00:28:55.729Z,57.08
2023-04-15T00:31:23.773Z,56.58
2023-04-15T00:33:51.666Z,56.83
2023-04-15T00:36:19.388Z,56.81
2023-04-15T00:38:47.213Z,56.85
2023-04-15T00:41:15.032Z,56.82
2023-04-15T00:43:44.521Z,57.37
2023-04-15T00:46:14.476Z,57.37
2023-04-15T00:48:42.441Z,57.34
2023-04-15T00:51:10.679Z,57.77
2023-04-15T00:53:38.475Z,57.81
2023-04-15T00:56:07.242Z,57.96
2023-04-15T00:58:35.037Z,57.99
2023-04-15T01:01:05.201Z,58.19
2023-04-15T01:03:33.023Z,58.83
2023-04-15T01:06:03.608Z,58.88
2023-04-15T01:08:32.195Z,58.72
2023-04-15T01:11:02.178Z,58.75
2023-04-15T01:13:30.156Z,58.82
2023-04-15T01:15:58.131Z,58.73
2023-04-15T01:18:29.582Z,59.11
2023-04-15T01:20:57.558Z,59.03
2023-04-15T01:23:25.393Z,59.61
2023-04-15T01:25:54.769Z,59.18
2023-04-15T01:28:22.481Z,59.22
2023-04-15T01:30:50.348Z,59.32
2023-04-15T01:33:18.007Z,59.72
2023-04-15T01:35:46.444Z,59.62
2023-04-15T01:38:14.299Z,59.89
2023-04-15T01:40:42.122Z,59.72
2023-04-15T01:43:11.226Z,60.04
2023-04-15T01:45:38.867Z,59.89
2023-04-15T01:48:07.078Z,60.01
2023-04-15T01:50:36.853Z,60.27
2023-04-15T01:53:04.957Z,60.66
2023-04-15T01:55:32.716Z,60.85
2023-04-15T01:58:01.240Z,60.91
2023-04-15T02:00:30.895Z,60.76
2023-04-15T02:02:59.367Z,60.85
2023-04-15T02:05:27.683Z,61.14
2023-04-15T02:07:55.613Z,61.47
2023-04-15T02:10:23.400Z,61.75
2023-04-15T02:12:51.070Z,62.09
2023-04-15T02:15:19.084Z,61.98
2023-04-15T02:17:51.137Z,61.88
2023-04-15T02:20:21.027Z,61.96
2023-04-15T02:22:48.807Z,62.11
2023-04-15T02:25:17.897Z,62.13
2023-04-15T02:27:45.732Z,61.80
2023-04-15T02:30:13.646Z,61.84
2023-04-15T02:32:44.620Z,62.38
2023-04-15T02:35:13.738Z,62.12
2023-04-15T02:37:44.030Z,62.52
2023-04-15T02:40:13.132Z,63.15
2023-04-15T02:42:41.220Z,62.53
2023-04-15T02:45:09.953Z,62.96
2023-04-15T02:47:37.737Z,63.15
2023-04-15T02:50:05.965Z,63.52
2023-04-15T02:52:34.996Z,63.01
2023-04-15T02:55:04.305Z,63.23
2023-04-15T02:57:31.986Z,63.18
2023-04-15T02:59:59.622Z,63.41
2023-04-15T03:02:27.560Z,63.77
2023-04-15T03:04:56.221Z,64.27
2023-04-15T03:07:23.959Z,64.09
2023-04-15T03:09:53.104Z,64.05
2023-04-15T03:12:20.780Z,64.15
2023-04-15T03:14:48.536Z,64.20
2023-04-15T03:17:16.501Z,64.55
2023-04-15T03:19:45.032Z,64.61
2023-04-15T03:22:12.807Z,64.72
2023-04-15T03:24:40.561Z,64.99
2023-04-15T03:27:09.654Z,65.33
2023-04-15T03:29:37.470Z,65.33
2023-04-15T03:32:05.812Z,65.63
2023-04-15T03:34:33.558Z,65.48
2023-04-15T03:37:01.407Z,65.69
2023-04-15T03:39:29.099Z,66.21
2023-04-15T03:41:56.762Z,65.85
2023-04-15T03:44:26.011Z,65.96
2023-04-15T03:46:53.678Z,65.85
2023-04-15T03:49:23.033Z,65.95
2023-04-15T03:51:50.741Z,66.43
2023-04-15T03:54:18.451Z,66.28
2023-04-15T03:56:46.172Z,65.99
2023-04-15T03:59:13.901Z,66.31
2023-04-15T04:01:43.072Z,66.24
2023-04-15T04:04:10.873Z,66.10
2023-04-15T04:06:38.763Z,66.34
2023-04-15T04:09:06.481Z,66.64
2023-04-15T04:11:34.291Z,66.58
2023-04-15T04:14:02.132Z,66.87
2023-04-15T04:16:29.975Z,66.97
2023-04-15T04:18:59.376Z,67.03
2023-04-15T04:21:27.602Z,67.34
2023-04-15T04:23:56.687Z,67.28
2023-04-15T04:26:24.552Z,67.41
2023-04-15T04:28:52.352Z,67.38
2023-04-15T04:31:20.201Z,67.46
2023-04-15T04:33:47.948Z,67.76
2023-04-15T04:36:17.123Z,67.94
2023-04-15T04:38:44.829Z,67.66
2023-04-15T04:41:12.536Z,67.90
2023-04-15T04:43:40.170Z,67.71
2023-04-15T04:46:07.912Z,68.23
2023-04-15T04:48:35.857Z,68.28
2023-04-15T04:51:03.736Z,68.21
2023-04-15T04:53:32.964Z,68.18
2023-04-15T04:56:00.815Z,68.05
2023-04-15T04:58:28.539Z,68.45
2023-04-15T05:00:56.719Z,68.44
2023-04-15T05:03:24.681Z,68.42
2023-04-15T05:05:52.442Z,68.44
2023-04-15T05:08:20.349Z,68.33
2023-04-15T05:10:49.652Z,68.61
2023-04-15T05:13:17.356Z,69.44
2023-04-15T05:15:45.474Z,68.63
2023-04-15T05:18:13.202Z,68.58
2023-04-15T05:20:40.897Z,68.77
2023-04-15T05:23:08.930Z,68.93
2023-04-15T05:25:36.997Z,68.79
2023-04-15T05:28:06.521Z,69.18
2023-04-15T05:30:34.333Z,68.96
2023-04-15T05:33:02.023Z,68.78
2023-04-15T05:35:29.738Z,68.61
2023-04-15T05:37:57.935Z,68.59
2023-04-15T05:40:25.562Z,68.81
2023-04-15T05:42:53.230Z,68.80
2023-04-15T05:45:22.410Z,68.91
2023-04-15T05:47:54.133Z,68.90
2023-04-15T05:50:22.183Z,68.80
2023-04-15T05:52:49.978Z,68.87
2023-04-15T05:55:17.674Z,69.22
2023-04-15T05:57:45.586Z,69.38
2023-04-15T06:00:14.502Z,69.39
2023-04-15T06:02:43.935Z,69.53
2023-04-15T06:05:11.913Z,69.75
2023-04-15T06:07:39.794Z,70.02
2023-04-15T06:10:08.901Z,69.89
2023-04-15T06:12:36.798Z,70.16
2023-04-15T06:15:05.063Z,70.42
2023-04-15T06:17:32.845Z,70.79
2023-04-15T06:20:01.949Z,70.84
2023-04-15T06:22:29.659Z,70.78
2023-04-15T06:24:57.357Z,70.70
2023-04-15T06:27:24.999Z,71.34
2023-04-15T06:29:52.773Z,71.20
2023-04-15T06:32:20.518Z,71.28
2023-04-15T06:34:48.245Z,71.88
2023-04-15T06:37:17.380Z,71.63
2023-04-15T06:39:45.708Z,71.71
2023-04-15T06:42:13.520Z,71.71
2023-04-15T06:44:41.195Z,71.67
2023-04-15T06:47:09.134Z,71.52
2023-04-15T06:49:37.051Z,71.26
2023-04-15T06:52:05.342Z,71.58
2023-04-15T06:54:34.508Z,71.43
2023-04-15T06:57:02.267Z,71.52
2023-04-15T06:59:30.080Z,71.24
2023-04-15T07:01:57.713Z,71.38
2023-04-15T07:04:25.728Z,71.23
2023-04-15T07:06:54.005Z,71.47
2023-04-15T07:09:21.654Z,71.41
2023-04-15T07:11:51.605Z,71.22
2023-04-15T07:14:19.611Z,71.39
2023-04-15T07:16:47.454Z,71.20
2023-04-15T07:19:15.129Z,71.34
2023-04-15T07:21:42.834Z,71.36
2023-04-15T07:24:10.763Z,71.38
2023-04-15T07:26:38.452Z,71.45
2023-04-15T07:29:07.542Z,71.48
2023-04-15T07:31:36.852Z,71.57
2023-04-15T07:34:04.729Z,71.22
2023-04-15T07:36:32.518Z,71.81
2023-04-15T07:39:02.266Z,72.28
2023-04-15T07:41:30.604Z,72.48
2023-04-15T07:43:58.320Z,72.70
2023-04-15T07:46:28.579Z,72.68
2023-04-15T07:48:56.374Z,72.86
2023-04-15T07:51:24.098Z,72.96
2023-04-15T07:53:51.871Z,73.19
2023-04-15T07:56:19.578Z,73.15
2023-04-15T07:58:47.308Z,73.12
2023-04-15T08:01:15.106Z,73.29
2023-04-15T08:03:44.322Z,72.95
2023-04-15T08:06:12.403Z,73.12
2023-04-15T08:08:40.157Z,72.83
2023-04-15T08:11:07.856Z,72.31
2023-04-15T08:13:35.595Z,72.69
2023-04-15T08:16:19.781Z,72.62
2023-04-15T08:18:49.285Z,72.21
2023-04-15T08:21:17.916Z,72.08
2023-04-15T08:23:46.269Z,72.18
2023-04-15T08:26:14.508Z,72.59
2023-04-15T08:28:43.175Z,72.35
2023-04-15T08:31:10.988Z,71.99
2023-04-15T08:33:38.725Z,72.19
2023-04-15T08:36:08.598Z,71.82
2023-04-15T08:38:36.554Z,72.08
2023-04-15T08:41:08.876Z,71.97
2023-04-15T08:43:36.846Z,71.68
2023-04-15T08:46:05.678Z,72.24
2023-04-15T08:48:34.241Z,71.51
2023-04-15T08:51:02.338Z,72.30
2023-04-15T08:53:31.869Z,72.39
2023-04-15T08:56:01.642Z,71.97
2023-04-15T08:58:29.793Z,72.09
2023-04-15T09:00:58.034Z,72.28
2023-04-15T09:03:26.531Z,72.07
2023-04-15T09:05:54.776Z,71.36
2023-04-15T09:08:22.540Z,71.32
2023-04-15T09:10:52.244Z,71.50
2023-04-15T09:13:20.022Z,70.92
2023-04-15T09:15:47.994Z,71.11
2023-04-15T09:18:17.115Z,71.12
2023-04-15T09:20:44.727Z,70.95
2023-04-15T09:23:17.563Z,70.30
2023-04-15T09:25:45.402Z,70.41
2023-04-15T09:28:14.528Z,70.62
2023-04-15T09:30:46.642Z,70.56
2023-04-15T09:33:16.486Z,70.62
2023-04-15T09:35:57.910Z,70.02
2023-04-15T09:38:25.701Z,70.26
2023-04-15T09:40:53.492Z,70.40
2023-04-15T09:43:22.864Z,69.92
2023-04-15T09:45:51.441Z,70.44
2023-04-15T09:48:21.533Z,70.25
2023-04-15T09:50:50.316Z,70.47
2023-04-15T09:53:19.225Z,70.41
2023-04-15T09:55:48.175Z,70.88
2023-04-15T09:58:19.812Z,70.59
2023-04-15T10:00:50.425Z,70.44
2023-04-15T10:03:21.993Z,70.09
2023-04-15T10:05:50.804Z,69.67
2023-04-15T10:08:20.007Z,69.53
2023-04-15T10:10:48.524Z,69.23
2023-04-15T10:13:18.949Z,68.94
2023-04-15T10:15:58.782Z,68.70
2023-04-15T10:18:28.722Z,68.60
2023-04-15T10:20:56.869Z,68.74
2023-04-15T10:23:25.714Z,69.18
2023-04-15T10:25:54.722Z,68.84
2023-04-15T10:28:23.731Z,68.87
2023-04-15T10:30:53.801Z,68.14
2023-04-15T10:33:24.106Z,67.92
2023-04-15T10:35:52.882Z,67.54
2023-04-15T10:38:34.383Z,67.51
2023-04-15T10:41:17.152Z,67.47
2023-04-15T10:43:51.426Z,67.63
2023-04-15T10:46:23.854Z,67.83
2023-04-15T10:49:34.997Z,68.69
2023-04-15T10:52:03.237Z,68.56
2023-04-15T10:54:36.288Z,68.39
2023-04-15T10:57:15.483Z,68.59
2023-04-15T11:00:02.733Z,68.39
2023-04-15T11:02:40.493Z,68.34
2023-04-15T11:05:10.112Z,68.16
2023-04-15T11:07:39.479Z,68.22
2023-04-15T11:10:53.075Z,67.90
2023-04-15T11:13:27.109Z,67.82
2023-04-15T11:15:59.312Z,67.47
2023-04-15T11:18:28.791Z,67.83
2023-04-15T11:20:59.267Z,68.50
2023-04-15T11:23:32.626Z,68.63
2023-04-15T11:26:01.044Z,68.91
2023-04-15T11:28:29.414Z,68.65
2023-04-15T11:30:57.449Z,68.16
2023-04-15T11:33:25.979Z,67.64
2023-04-15T11:35:54.945Z,68.09
2023-04-15T11:38:24.115Z,67.86
2023-04-15T11:40:52.650Z,67.71
2023-04-15T11:43:22.025Z,68.06
2023-04-15T11:45:54.121Z,67.79
2023-04-15T11:48:24.753Z,67.92
2023-04-15T11:50:56.721Z,67.91
2023-04-15T11:53:26.653Z,67.81
2023-04-15T11:55:55.220Z,67.99
2023-04-15T11:58:24.564Z,68.27
2023-04-15T12:00:54.138Z,68.24
2023-04-15T12:03:25.215Z,68.14
2023-04-15T12:06:11.214Z,68.23
2023-04-15T12:09:00.359Z,68.18
2023-04-15T12:11:38.739Z,68.44
2023-04-15T12:14:08.804Z,68.35
2023-04-15T12:16:48.403Z,68.19
2023-04-15T12:19:22.212Z,68.38
2023-04-15T12:21:50.864Z,68.15
2023-04-15T12:24:22.735Z,68.50
2023-04-15T12:26:51.522Z,68.49
2023-04-15T12:29:19.266Z,68.81
2023-04-15T12:31:51.574Z,68.95
2023-04-15T12:34:20.048Z,68.84
2023-04-15T12:36:47.953Z,68.85
2023-04-15T12:39:15.693Z,68.89
2023-04-15T12:41:44.763Z,68.82
2023-04-15T12:44:12.698Z,68.30
2023-04-15T12:46:41.548Z,68.76
2023-04-15T12:49:10.547Z,69.13
2023-04-15T12:51:38.195Z,68.92
2023-04-15T12:54:06.314Z,69.01
2023-04-15T12:56:34.283Z,68.99
2023-04-15T12:59:04.211Z,68.87
2023-04-15T13:01:32.094Z,68.77
2023-04-15T13:03:59.875Z,68.12
2023-04-15T13:06:29.187Z,68.69
2023-04-15T13:08:58.693Z,68.47
2023-04-15T13:11:27.169Z,68.33
2023-04-15T13:13:54.893Z,68.92
2023-04-15T13:16:24.757Z,69.00
2023-04-15T13:18:52.506Z,68.54
2023-04-15T13:21:20.726Z,68.42
2023-04-15T13:23:49.765Z,68.71
2023-04-15T13:26:17.453Z,69.19
2023-04-15T13:28:45.134Z,69.10
2023-04-15T13:31:12.904Z,69.56
2023-04-15T13:33:41.953Z,69.47
2023-04-15T13:36:10.188Z,69.62
2023-04-15T13:38:37.898Z,69.87
2023-04-15T13:41:05.543Z,70.15
2023-04-15T13:43:34.322Z,70.02
2023-04-15T13:46:02.211Z,70.31
2023-04-15T13:48:30.151Z,70.72
2023-04-15T13:50:59.274Z,70.98
2023-04-15T13:53:33.991Z,71.60
2023-04-15T13:56:06.927Z,70.97
2023-04-15T13:58:34.700Z,70.89
2023-04-15T14:01:04.723Z,70.53
2023-04-15T14:03:33.832Z,70.40
2023-04-15T14:06:03.316Z,70.91
2023-04-15T14:08:31.370Z,70.44
2023-04-15T14:10:59.126Z,70.29
2023-04-15T14:13:26.942Z,70.77
2023-04-15T14:15:54.658Z,70.44
2023-04-15T14:18:22.397Z,70.92
2023-04-15T14:20:50.083Z,70.37
2023-04-15T14:23:19.189Z,70.85
2023-04-15T14:25:48.275Z,70.89
2023-04-15T14:28:16.235Z,71.30
2023-04-15T14:30:43.970Z,71.31
2023-04-15T14:33:11.707Z,71.58
2023-04-15T14:35:39.413Z,71.68
2023-04-15T14:38:10.479Z,71.60
2023-04-15T14:40:40.021Z,71.78
2023-04-15T14:43:07.682Z,71.85
2023-04-15T14:45:36.309Z,72.16
2023-04-15T14:48:04.561Z,72.17
2023-04-15T14:50:32.302Z,72.11
2023-04-15T14:53:00.292Z,72.39
2023-04-15T14:55:27.944Z,72.26
2023-04-15T14:57:57.034Z,72.78
2023-04-15T15:00:24.704Z,73.29
2023-04-15T15:02:52.577Z,73.79
2023-04-15T15:05:20.815Z,74.01
2023-04-15T15:07:48.871Z,74.25
2023-04-15T15:10:16.601Z,74.76
2023-04-15T15:13:03.376Z,74.72
2023-04-15T15:15:31.208Z,75.39
2023-04-15T15:17:59.012Z,75.60
2023-04-15T15:20:26.985Z,75.88
2023-04-15T15:22:54.861Z,75.61
2023-04-15T15:25:22.681Z,76.13
2023-04-15T15:27:50.495Z,76.38
2023-04-15T15:30:19.735Z,76.65
2023-04-15T15:32:47.445Z,76.88
2023-04-15T15:35:15.357Z,77.39
2023-04-15T15:37:43.428Z,77.37
2023-04-15T15:40:12.178Z,77.37
2023-04-15T15:42:39.896Z,77.98
2023-04-15T15:45:08.502Z,77.38
2023-04-15T15:47:37.648Z,77.41
2023-04-15T15:50:06.331Z,77.46
2023-04-15T15:52:34.528Z,77.60
2023-04-15T15:55:02.894Z,78.01
2023-04-15T15:57:30.554Z,78.11
2023-04-15T16:00:10.402Z,78.03
2023-04-15T16:03:05.223Z,78.05
2023-04-15T16:05:28.506Z,78.56
2023-04-15T16:07:56.244Z,78.56
2023-04-15T16:10:23.958Z,78.34
2023-04-15T16:12:51.735Z,78.36
2023-04-15T16:15:19.582Z,78.80
2023-04-15T16:17:48.820Z,78.73
2023-04-15T16:20:16.696Z,78.89
2023-04-15T16:22:44.505Z,78.92
2023-04-15T16:25:12.207Z,78.99
2023-04-15T16:27:57.149Z,78.73
2023-04-15T16:30:28.921Z,78.95
2023-04-15T16:32:58.269Z,78.89
2023-04-15T16:35:26.103Z,79.25
2023-04-15T16:37:53.885Z,79.17
2023-04-15T16:40:21.574Z,79.12
2023-04-15T16:42:49.245Z,79.26
2023-04-15T16:45:16.993Z,79.27
2023-04-15T16:47:44.732Z,79.62
2023-04-15T16:50:13.865Z,79.62
2023-04-15T16:52:41.711Z,79.73
2023-04-15T16:55:09.876Z,79.66
2023-04-15T16:58:02.492Z,79.84
2023-04-15T17:00:25.250Z,79.78
2023-04-15T17:02:53.146Z,80.14
2023-04-15T17:05:22.507Z,80.63
2023-04-15T17:07:50.137Z,80.37
2023-04-15T17:10:17.907Z,80.61
2023-04-15T17:12:45.703Z,80.76
2023-04-15T17:15:13.429Z,80.67
2023-04-15T17:17:41.185Z,80.64
2023-04-15T17:20:09.321Z,80.72
2023-04-15T17:22:38.509Z,80.55
2023-04-15T17:25:07.290Z,80.88
2023-04-15T17:27:35.011Z,80.54
2023-04-15T17:30:02.786Z,80.91
2023-04-15T17:32:34.158Z,81.54
2023-04-15T17:35:02.819Z,81.37
2023-04-15T17:37:30.579Z,81.74
2023-04-15T17:39:59.676Z,81.79
2023-04-15T17:42:27.409Z,81.99
2023-04-15T17:44:55.026Z,82.51
2023-04-15T17:47:22.753Z,82.72
2023-04-15T17:49:50.479Z,82.87
2023-04-15T17:52:18.158Z,83.22
2023-04-15T17:54:46.923Z,83.31
2023-04-15T17:57:16.677Z,83.50
2023-04-15T17:59:47.401Z,83.69
2023-04-15T18:02:15.638Z,83.94
2023-04-15T18:04:43.870Z,84.21
2023-04-15T18:07:11.720Z,84.13
2023-04-15T18:09:39.412Z,84.28
2023-04-15T18:12:08.886Z,84.71
2023-04-15T18:14:38.009Z,84.60
2023-04-15T18:17:06.016Z,84.74
2023-04-15T18:19:33.763Z,84.90
2023-04-15T18:22:01.437Z,85.24
2023-04-15T18:24:29.361Z,85.54
2023-04-15T18:26:57.484Z,85.74
2023-04-15T18:29:25.359Z,86.00
2023-04-15T18:31:54.584Z,86.33
2023-04-15T18:34:22.388Z,86.43
2023-04-15T18:36:50.048Z,86.49
2023-04-15T18:39:17.778Z,86.65
2023-04-15T18:41:45.582Z,86.46
2023-04-15T18:44:13.220Z,86.85
2023-04-15T18:46:40.970Z,86.72
2023-04-15T18:49:10.311Z,86.74
2023-04-15T18:51:38.067Z,87.07
2023-04-15T18:54:05.771Z,86.68
2023-04-15T18:56:33.447Z,87.16
2023-04-15T18:59:18.773Z,87.40
2023-04-15T19:01:49.560Z,87.67
2023-04-15T19:04:18.741Z,87.47
2023-04-15T19:06:47.675Z,87.38
2023-04-15T19:09:15.845Z,87.22
2023-04-15T19:11:44.379Z,87.15
2023-04-15T19:14:12.394Z,87.25
2023-04-15T19:16:40.097Z,87.34
2023-04-15T19:19:07.973Z,87.47
2023-04-15T19:21:37.100Z,87.34
2023-04-15T19:24:05.125Z,87.40
2023-04-15T19:26:32.781Z,87.20
2023-04-15T19:29:00.487Z,86.96
2023-04-15T19:31:28.273Z,87.19
2023-04-15T19:33:55.990Z,87.29
2023-04-15T19:36:23.699Z,87.20
2023-04-15T19:38:52.730Z,87.30
2023-04-15T19:41:20.805Z,86.95
2023-04-15T19:43:48.539Z,86.88
2023-04-15T19:46:16.296Z,86.78
2023-04-15T19:48:44.174Z,86.91
2023-04-15T19:51:12.394Z,86.86
2023-04-15T19:53:40.667Z,87.09
2023-04-15T19:56:09.778Z,87.09
2023-04-15T19:58:37.585Z,87.15
2023-04-15T20:01:05.368Z,87.22
2023-04-15T20:03:33.219Z,87.19
2023-04-15T20:06:00.974Z,87.12
2023-04-15T20:08:28.766Z,87.11
2023-04-15T20:10:56.732Z,86.97
2023-04-15T20:13:25.812Z,87.02
2023-04-15T20:15:53.521Z,87.24
2023-04-15T20:18:21.300Z,87.03
2023-04-15T20:20:49.011Z,87.12
2023-04-15T20:23:16.806Z,87.09
2023-04-15T20:25:44.508Z,86.96
2023-04-15T20:28:12.487Z,87.21
2023-04-15T20:30:41.735Z,86.90
2023-04-15T20:33:09.536Z,86.99
2023-04-15T20:35:37.189Z,87.15
2023-04-15T20:38:05.633Z,87.12
2023-04-15T20:40:33.833Z,87.12
2023-04-15T20:43:01.667Z,87.35
2023-04-15T20:45:29.364Z,87.47
2023-04-15T20:47:58.434Z,87.66
2023-04-15T20:50:26.063Z,87.53
2023-04-15T20:52:53.782Z,87.25
2023-04-15T20:55:21.509Z,87.22
2023-04-15T20:57:49.474Z,87.43
2023-04-15T21:00:17.257Z,87.58
2023-04-15T21:02:45.089Z,87.87
2023-04-15T21:05:14.390Z,87.46
2023-04-15T21:07:42.084Z,87.70
2023-04-15T21:10:10.470Z,87.83
2023-04-15T21:12:40.781Z,87.87
2023-04-15T21:15:09.490Z,87.91
2023-04-15T21:17:37.165Z,87.92
2023-04-15T21:20:05.230Z,88.20
2023-04-15T21:22:34.272Z,88.59
2023-04-15T21:25:01.949Z,88.63
2023-04-15T21:27:29.616Z,88.72
2023-04-15T21:29:57.330Z,88.63
2023-04-15T21:32:25.076Z,88.35
2023-04-15T21:34:52.770Z,88.41
2023-04-15T21:37:20.482Z,88.73
2023-04-15T21:39:49.546Z,88.71
2023-04-15T21:42:17.421Z,88.70
2023-04-15T21:44:45.177Z,89.02
2023-04-15T21:47:12.850Z,89.42
2023-04-15T21:49:40.758Z,89.28
2023-04-15T21:52:08.481Z,89.61
2023-04-15T21:54:37.939Z,89.50
2023-04-15T21:57:07.041Z,89.43
2023-04-15T21:59:34.791Z,89.58
2023-04-15T22:02:02.516Z,89.82
2023-04-15T22:04:30.334Z,89.86
2023-04-15T22:07:01.586Z,89.90
2023-04-15T22:09:29.344Z,90.25
2023-04-15T22:11:57.608Z,90.58
2023-04-15T22:14:26.960Z,90.26
2023-04-15T22:16:55.087Z,90.42
2023-04-15T22:19:22.954Z,90.47
2023-04-15T22:21:51.404Z,90.62
2023-04-15T22:24:33.361Z,90.78
2023-04-15T22:27:06.779Z,91.13
2023-04-15T22:29:35.877Z,91.04
2023-04-15T22:32:03.539Z,90.89
2023-04-15T22:34:31.223Z,91.24
2023-04-15T22:36:58.931Z,91.12
2023-04-15T22:39:26.606Z,91.01
2023-04-15T22:41:54.298Z,91.16
2023-04-15T22:44:21.952Z,91.15
2023-04-15T22:46:52.844Z,91.58
2023-04-15T22:49:20.543Z,91.54
2023-04-15T22:51:48.272Z,91.82
2023-04-15T22:54:15.893Z,91.95
2023-04-15T22:56:43.566Z,92.09
2023-04-15T22:59:11.464Z,91.98
2023-04-15T23:01:39.419Z,92.04
2023-04-15T23:04:25.394Z,92.15
2023-04-15T23:06:54.148Z,92.15
2023-04-15T23:09:22.490Z,92.39
2023-04-15T23:11:50.481Z,92.50
2023-04-15T23:14:18.185Z,92.57
2023-04-15T23:16:46.398Z,92.67
2023-04-15T23:19:15.830Z,92.72
2023-04-15T23:21:43.473Z,92.73
2023-04-15T23:24:11.186Z,92.55
2023-04-15T23:26:38.826Z,92.50
2023-04-15T23:29:06.543Z,92.69
2023-04-15T23:31:34.443Z,92.88
2023-04-15T23:34:02.309Z,92.99
2023-04-15T23:36:31.962Z,92.92
2023-04-15T23:38:59.874Z,92.76
2023-04-15T23:41:27.511Z,93.11
2023-04-15T23:43:55.134Z,92.89
2023-04-15T23:46:22.884Z,93.25
2023-04-15T23:48:50.605Z,93.12
2023-04-15T23:51:18.334Z,93.48
2023-04-15T23:53:47.548Z,92.98
2023-04-15T23:56:15.712Z,93.39
2023-04-15T23:58:43.383Z,93.52
